sensor_id;sensor_type;location;lat;lon;timestamp;pressure;altitude;pressure_sealevel;temperature;humidity
51249;BME280;39642;47.556;18.728;2023-01-26T00:02:09;100322.97;;;21.44;34.94
51249;BME280;39642;47.556;18.728;2023-01-26T00:04:35;100324.72;;;21.43;34.54
51249;BME280;39642;47.556;18.728;2023-01-26T00:07:00;100323.88;;;21.42;34.82
51249;BME280;39642;47.556;18.728;2023-01-26T00:09:26;100317.72;;;21.42;34.82
51249;BME280;39642;47.556;18.728;2023-01-26T00:11:52;100315.09;;;21.42;35.05
51249;BME280;39642;47.556;18.728;2023-01-26T00:14:18;100316.00;;;21.41;35.20
51249;BME280;39642;47.556;18.728;2023-01-26T00:16:44;100320.47;;;21.40;34.80
51249;BME280;39642;47.556;18.728;2023-01-26T00:19:10;100324.87;;;21.40;35.15
51249;BME280;39642;47.556;18.728;2023-01-26T00:21:36;100317.84;;;21.39;35.03
51249;BME280;39642;47.556;18.728;2023-01-26T00:24:02;100317.00;;;21.38;35.06
51249;BME280;39642;47.556;18.728;2023-01-26T00:26:29;100313.50;;;21.38;35.19
51249;BME280;39642;47.556;18.728;2023-01-26T00:28:55;100309.16;;;21.37;34.83
51249;BME280;39642;47.556;18.728;2023-01-26T00:31:23;100313.56;;;21.36;35.18
51249;BME280;39642;47.556;18.728;2023-01-26T00:33:50;100313.56;;;21.36;34.90
51249;BME280;39642;47.556;18.728;2023-01-26T00:36:16;100302.13;;;21.36;35.06
51249;BME280;39642;47.556;18.728;2023-01-26T00:38:43;100304.78;;;21.36;35.05
51249;BME280;39642;47.556;18.728;2023-01-26T00:41:09;100305.63;;;21.36;34.90
51249;BME280;39642;47.556;18.728;2023-01-26T00:43:55;100302.13;;;21.36;34.95
51249;BME280;39642;47.556;18.728;2023-01-26T00:46:21;100308.19;;;21.38;34.81
51249;BME280;39642;47.556;18.728;2023-01-26T00:48:47;100301.94;;;21.39;34.72
51249;BME280;39642;47.556;18.728;2023-01-26T00:51:12;100307.25;;;21.39;34.75
51249;BME280;39642;47.556;18.728;2023-01-26T00:53:38;100302.75;;;21.41;34.78
51249;BME280;39642;47.556;18.728;2023-01-26T00:56:05;100301.84;;;21.42;34.78
51249;BME280;39642;47.556;18.728;2023-01-26T00:58:30;100302.69;;;21.42;34.78
51249;BME280;39642;47.556;18.728;2023-01-26T01:00:56;100303.53;;;21.43;34.83
51249;BME280;39642;47.556;18.728;2023-01-26T01:03:22;100298.22;;;21.43;34.73
51249;BME280;39642;47.556;18.728;2023-01-26T01:05:48;100290.22;;;21.45;34.80
51249;BME280;39642;47.556;18.728;2023-01-26T01:08:14;100294.56;;;21.46;34.73
51249;BME280;39642;47.556;18.728;2023-01-26T01:10:40;100292.00;;;21.44;34.78
51249;BME280;39642;47.556;18.728;2023-01-26T01:13:06;100296.38;;;21.45;34.81
51249;BME280;39642;47.556;18.728;2023-01-26T01:15:31;100285.75;;;21.45;34.55
51249;BME280;39642;47.556;18.728;2023-01-26T01:17:57;100292.88;;;21.45;34.41
51249;BME280;39642;47.556;18.728;2023-01-26T01:20:23;100294.66;;;21.44;34.60
51249;BME280;39642;47.556;18.728;2023-01-26T01:22:50;100284.06;;;21.44;34.53
51249;BME280;39642;47.556;18.728;2023-01-26T01:25:16;100290.22;;;21.45;34.66
51249;BME280;39642;47.556;18.728;2023-01-26T01:27:42;100292.09;;;21.42;34.65
51249;BME280;39642;47.556;18.728;2023-01-26T01:30:09;100288.59;;;21.42;34.78
51249;BME280;39642;47.556;18.728;2023-01-26T01:32:35;100285.94;;;21.42;34.76
51249;BME280;39642;47.556;18.728;2023-01-26T01:35:01;100279.78;;;21.41;34.33
51249;BME280;39642;47.556;18.728;2023-01-26T01:37:28;100277.19;;;21.40;34.80
51249;BME280;39642;47.556;18.728;2023-01-26T01:39:54;100275.47;;;21.39;34.59
51249;BME280;39642;47.556;18.728;2023-01-26T01:42:20;100266.66;;;21.38;34.66
51249;BME280;39642;47.556;18.728;2023-01-26T01:47:53;100266.78;;;21.37;34.83
51249;BME280;39642;47.556;18.728;2023-01-26T01:50:20;100263.25;;;21.36;34.83
51249;BME280;39642;47.556;18.728;2023-01-26T01:52:47;100261.47;;;21.37;34.74
51249;BME280;39642;47.556;18.728;2023-01-26T01:55:14;100259.75;;;21.36;34.89
51249;BME280;39642;47.556;18.728;2023-01-26T01:58:01;100259.75;;;21.36;34.74
51249;BME280;39642;47.556;18.728;2023-01-26T02:00:28;100261.47;;;21.37;34.46
51249;BME280;39642;47.556;18.728;2023-01-26T02:05:56;100244.63;;;21.38;34.51
51249;BME280;39642;47.556;18.728;2023-01-26T02:08:38;100238.38;;;21.39;34.51
51249;BME280;39642;47.556;18.728;2023-01-26T02:11:09;100239.25;;;21.39;34.46
51249;BME280;39642;47.556;18.728;2023-01-26T02:13:36;100232.16;;;21.40;34.43
51249;BME280;39642;47.556;18.728;2023-01-26T02:16:02;100231.22;;;21.41;34.60
51249;BME280;39642;47.556;18.728;2023-01-26T02:18:28;100222.34;;;21.42;34.58
51249;BME280;39642;47.556;18.728;2023-01-26T02:21:09;100224.94;;;21.44;34.51
51249;BME280;39642;47.556;18.728;2023-01-26T02:26:15;100218.69;;;21.45;34.36
51249;BME280;39642;47.556;18.728;2023-01-26T02:28:43;100216.03;;;21.45;34.42
51249;BME280;39642;47.556;18.728;2023-01-26T02:31:11;100223.13;;;21.44;34.42
51249;BME280;39642;47.556;18.728;2023-01-26T02:33:37;100214.22;;;21.45;34.40
51249;BME280;39642;47.556;18.728;2023-01-26T02:36:04;100213.37;;;21.45;34.44
51249;BME280;39642;47.556;18.728;2023-01-26T02:38:41;100206.28;;;21.45;34.42
51249;BME280;39642;47.556;18.728;2023-01-26T02:41:10;100198.44;;;21.44;34.04
51249;BME280;39642;47.556;18.728;2023-01-26T02:43:38;100201.94;;;21.44;34.28
51249;BME280;39642;47.556;18.728;2023-01-26T02:46:04;100204.66;;;21.42;34.46
51249;BME280;39642;47.556;18.728;2023-01-26T02:48:31;100195.78;;;21.44;34.30
51249;BME280;39642;47.556;18.728;2023-01-26T02:51:16;100192.38;;;21.41;34.29
51249;BME280;39642;47.556;18.728;2023-01-26T02:53:42;100184.44;;;21.41;34.52
51249;BME280;39642;47.556;18.728;2023-01-26T02:56:08;100193.28;;;21.40;34.33
51249;BME280;39642;47.556;18.728;2023-01-26T02:58:33;100177.44;;;21.39;34.58
51249;BME280;39642;47.556;18.728;2023-01-26T03:00:59;100175.75;;;21.38;34.29
51249;BME280;39642;47.556;18.728;2023-01-26T03:03:27;100175.75;;;21.38;34.44
51249;BME280;39642;47.556;18.728;2023-01-26T03:06:10;100174.91;;;21.37;34.58
51249;BME280;39642;47.556;18.728;2023-01-26T03:08:37;100171.41;;;21.37;34.64
51249;BME280;39642;47.556;18.728;2023-01-26T03:11:04;100162.56;;;21.36;34.40
51249;BME280;39642;47.556;18.728;2023-01-26T03:13:30;100167.88;;;21.36;34.53
51249;BME280;39642;47.556;18.728;2023-01-26T03:15:56;100164.38;;;21.36;34.62
51249;BME280;39642;47.556;18.728;2023-01-26T03:18:27;100160.81;;;21.37;34.39
51249;BME280;39642;47.556;18.728;2023-01-26T03:21:14;100153.78;;;21.36;34.34
51249;BME280;39642;47.556;18.728;2023-01-26T03:24:00;100153.72;;;21.37;34.24
51249;BME280;39642;47.556;18.728;2023-01-26T03:26:44;100150.09;;;21.38;34.19
51249;BME280;39642;47.556;18.728;2023-01-26T03:29:30;100147.38;;;21.40;34.24
51249;BME280;39642;47.556;18.728;2023-01-26T03:31:56;100141.16;;;21.41;34.26
51249;BME280;39642;47.556;18.728;2023-01-26T03:34:24;100138.50;;;21.41;34.21
51249;BME280;39642;47.556;18.728;2023-01-26T03:36:50;100142.88;;;21.42;34.37
51249;BME280;39642;47.556;18.728;2023-01-26T03:39:16;100140.16;;;21.44;34.28
51249;BME280;39642;47.556;18.728;2023-01-26T03:42:01;100141.00;;;21.44;34.30
51249;BME280;39642;47.556;18.728;2023-01-26T03:44:45;100139.19;;;21.45;34.25
51249;BME280;39642;47.556;18.728;2023-01-26T03:47:31;100138.25;;;21.46;34.37
51249;BME280;39642;47.556;18.728;2023-01-26T03:50:16;100132.94;;;21.46;34.23
51249;BME280;39642;47.556;18.728;2023-01-26T03:53:01;100129.44;;;21.45;34.28
51249;BME280;39642;47.556;18.728;2023-01-26T03:55:45;100121.50;;;21.45;34.30
51249;BME280;39642;47.556;18.728;2023-01-26T03:58:29;100121.50;;;21.45;34.23
51249;BME280;39642;47.556;18.728;2023-01-26T04:00:58;100115.44;;;21.43;34.27
51249;BME280;39642;47.556;18.728;2023-01-26T04:03:24;100118.09;;;21.43;34.10
51249;BME280;39642;47.556;18.728;2023-01-26T04:06:08;100121.69;;;21.42;34.16
51249;BME280;39642;47.556;18.728;2023-01-26T04:08:53;100115.53;;;21.41;34.28
51249;BME280;39642;47.556;18.728;2023-01-26T04:11:19;100113.81;;;21.40;33.95
51249;BME280;39642;47.556;18.728;2023-01-26T04:13:44;100102.34;;;21.40;34.38
51249;BME280;39642;47.556;18.728;2023-01-26T04:16:29;100109.44;;;21.39;34.10
51249;BME280;39642;47.556;18.728;2023-01-26T04:19:13;100112.09;;;21.39;34.35
51249;BME280;39642;47.556;18.728;2023-01-26T04:21:58;100111.22;;;21.39;34.43
51249;BME280;39642;47.556;18.728;2023-01-26T04:24:25;100106.88;;;21.38;34.39
51249;BME280;39642;47.556;18.728;2023-01-26T04:26:50;100103.38;;;21.37;34.40
51249;BME280;39642;47.556;18.728;2023-01-26T04:29:16;100099.88;;;21.37;34.16
51249;BME280;39642;47.556;18.728;2023-01-26T04:31:42;100105.19;;;21.37;34.27
51249;BME280;39642;47.556;18.728;2023-01-26T04:34:11;100099.88;;;21.37;34.24
51249;BME280;39642;47.556;18.728;2023-01-26T04:36:38;100095.50;;;21.36;34.42
51249;BME280;39642;47.556;18.728;2023-01-26T04:39:04;100099.97;;;21.35;34.18
51249;BME280;39642;47.556;18.728;2023-01-26T04:41:30;100098.16;;;21.36;34.29
51249;BME280;39642;47.556;18.728;2023-01-26T04:43:57;100090.22;;;21.36;34.29
51249;BME280;39642;47.556;18.728;2023-01-26T04:46:23;100091.16;;;21.35;34.58
51249;BME280;39642;47.556;18.728;2023-01-26T04:48:50;100090.22;;;21.36;34.30
51249;BME280;39642;47.556;18.728;2023-01-26T04:51:17;100085.75;;;21.36;34.41
51249;BME280;39642;47.556;18.728;2023-01-26T04:53:47;100094.66;;;21.35;34.34
51249;BME280;39642;47.556;18.728;2023-01-26T04:56:25;100090.22;;;21.36;34.37
51249;BME280;39642;47.556;18.728;2023-01-26T04:58:52;100086.72;;;21.35;34.33
51249;BME280;39642;47.556;18.728;2023-01-26T05:01:19;100084.06;;;21.35;34.05
51249;BME280;39642;47.556;18.728;2023-01-26T05:03:45;100077.81;;;21.36;33.96
51249;BME280;39642;47.556;18.728;2023-01-26T05:06:11;100082.25;;;21.36;34.13
51249;BME280;39642;47.556;18.728;2023-01-26T05:08:37;100086.62;;;21.37;34.00
51249;BME280;39642;47.556;18.728;2023-01-26T05:11:04;100085.75;;;21.36;34.12
51249;BME280;39642;47.556;18.728;2023-01-26T05:13:30;100077.75;;;21.38;34.00
51249;BME280;39642;47.556;18.728;2023-01-26T05:15:56;100076.91;;;21.37;34.02
51249;BME280;39642;47.556;18.728;2023-01-26T05:18:22;100083.88;;;21.38;33.87
51249;BME280;39642;47.556;18.728;2023-01-26T05:20:48;100078.59;;;21.38;33.80
51249;BME280;39642;47.556;18.728;2023-01-26T05:23:14;100076.78;;;21.39;33.45
51249;BME280;39642;47.556;18.728;2023-01-26T05:25:40;100088.19;;;21.41;33.73
51249;BME280;39642;47.556;18.728;2023-01-26T05:28:06;100085.53;;;21.41;33.77
51249;BME280;39642;47.556;18.728;2023-01-26T05:30:32;100081.97;;;21.42;33.87
51249;BME280;39642;47.556;18.728;2023-01-26T05:33:02;100086.28;;;21.43;33.22
51249;BME280;39642;47.556;18.728;2023-01-26T05:35:28;100081.88;;;21.44;33.73
51249;BME280;39642;47.556;18.728;2023-01-26T05:37:54;100085.38;;;21.44;33.73
51249;BME280;39642;47.556;18.728;2023-01-26T05:40:21;100087.06;;;21.45;33.34
51249;BME280;39642;47.556;18.728;2023-01-26T05:42:48;100084.41;;;21.45;33.51
51249;BME280;39642;47.556;18.728;2023-01-26T05:45:14;100086.12;;;21.46;33.08
51249;BME280;39642;47.556;18.728;2023-01-26T05:47:42;100083.50;;;21.46;32.99
51249;BME280;39642;47.556;18.728;2023-01-26T05:50:10;100083.38;;;21.48;33.55
51249;BME280;39642;47.556;18.728;2023-01-26T05:52:36;100087.75;;;21.49;33.07
51249;BME280;39642;47.556;18.728;2023-01-26T05:55:03;100083.38;;;21.48;32.64
51249;BME280;39642;47.556;18.728;2023-01-26T05:57:29;100080.66;;;21.49;34.75
51249;BME280;39642;47.556;18.728;2023-01-26T05:59:55;100089.38;;;21.51;35.22
51249;BME280;39642;47.556;18.728;2023-01-26T06:02:21;100094.66;;;21.51;34.69
51249;BME280;39642;47.556;18.728;2023-01-26T06:04:47;100089.38;;;21.51;34.50
51249;BME280;39642;47.556;18.728;2023-01-26T06:07:13;100095.59;;;21.50;33.61
51249;BME280;39642;47.556;18.728;2023-01-26T06:09:39;100097.25;;;21.53;33.54
51249;BME280;39642;47.556;18.728;2023-01-26T06:12:10;100097.25;;;21.53;33.74
51249;BME280;39642;47.556;18.728;2023-01-26T06:14:37;100101.59;;;21.54;34.17
51249;BME280;39642;47.556;18.728;2023-01-26T06:17:02;100096.28;;;21.54;33.95
51249;BME280;39642;47.556;18.728;2023-01-26T06:19:28;100088.34;;;21.54;33.72
51249;BME280;39642;47.556;18.728;2023-01-26T06:21:54;100098.84;;;21.55;34.03
51249;BME280;39642;47.556;18.728;2023-01-26T06:24:20;100089.03;;;21.57;35.02
51249;BME280;39642;47.556;18.728;2023-01-26T06:26:47;100085.41;;;21.58;35.39
51249;BME280;39642;47.556;18.728;2023-01-26T06:29:14;100087.28;;;21.56;35.69
51249;BME280;39642;47.556;18.728;2023-01-26T06:31:40;100083.81;;;21.56;36.44
51249;BME280;39642;47.556;18.728;2023-01-26T06:34:07;100089.94;;;21.56;35.51
51249;BME280;39642;47.556;18.728;2023-01-26T06:36:33;100091.75;;;21.56;35.12
51249;BME280;39642;47.556;18.728;2023-01-26T06:38:59;100088.25;;;21.55;34.86
51249;BME280;39642;47.556;18.728;2023-01-26T06:41:25;100079.53;;;21.53;34.77
51249;BME280;39642;47.556;18.728;2023-01-26T06:43:51;100087.50;;;21.53;35.18
51249;BME280;39642;47.556;18.728;2023-01-26T06:46:17;100081.34;;;21.53;35.39
51249;BME280;39642;47.556;18.728;2023-01-26T06:48:44;100076.19;;;21.50;35.52
51249;BME280;39642;47.556;18.728;2023-01-26T06:53:46;100076.47;;;21.45;35.88
51249;BME280;39642;47.556;18.728;2023-01-26T06:56:13;100075.53;;;21.46;35.22
51249;BME280;39642;47.556;18.728;2023-01-26T06:58:39;100076.56;;;21.44;33.65
51249;BME280;39642;47.556;18.728;2023-01-26T07:01:05;100070.50;;;21.41;34.32
51249;BME280;39642;47.556;18.728;2023-01-26T07:03:31;100077.59;;;21.41;33.58
51249;BME280;39642;47.556;18.728;2023-01-26T07:05:57;100077.75;;;21.38;33.82
51249;BME280;39642;47.556;18.728;2023-01-26T07:08:23;100072.44;;;21.38;33.88
51249;BME280;39642;47.556;18.728;2023-01-26T07:10:49;100072.38;;;21.39;33.91
51249;BME280;39642;47.556;18.728;2023-01-26T07:13:15;100072.28;;;21.41;33.81
51249;BME280;39642;47.556;18.728;2023-01-26T07:15:41;100071.28;;;21.44;33.51
51249;BME280;39642;47.556;18.728;2023-01-26T07:18:07;100070.31;;;21.45;33.51
51249;BME280;39642;47.556;18.728;2023-01-26T07:20:33;100067.59;;;21.46;33.46
51249;BME280;39642;47.556;18.728;2023-01-26T07:22:59;100069.22;;;21.49;33.26
51249;BME280;39642;47.556;18.728;2023-01-26T07:25:25;100073.47;;;21.51;32.99
51249;BME280;39642;47.556;18.728;2023-01-26T07:27:58;100076.88;;;21.53;33.09
51249;BME280;39642;47.556;18.728;2023-01-26T07:30:25;100065.34;;;21.54;33.20
51249;BME280;39642;47.556;18.728;2023-01-26T07:32:51;100063.44;;;21.56;33.20
51249;BME280;39642;47.556;18.728;2023-01-26T07:35:17;100071.41;;;21.56;33.05
51249;BME280;39642;47.556;18.728;2023-01-26T07:37:43;100070.38;;;21.59;33.06
51249;BME280;39642;47.556;18.728;2023-01-26T07:40:09;100065.06;;;21.59;32.99
51249;BME280;39642;47.556;18.728;2023-01-26T07:42:35;100050.03;;;21.59;32.98
51249;BME280;39642;47.556;18.728;2023-01-26T07:45:01;100055.16;;;21.62;32.89
51249;BME280;39642;47.556;18.728;2023-01-26T07:47:27;100057.72;;;21.64;33.22
51249;BME280;39642;47.556;18.728;2023-01-26T07:49:53;100055.84;;;21.66;32.94
51249;BME280;39642;47.556;18.728;2023-01-26T07:52:19;100056.69;;;21.67;33.78
51249;BME280;39642;47.556;18.728;2023-01-26T07:54:44;100056.84;;;21.63;33.54
51249;BME280;39642;47.556;18.728;2023-01-26T07:57:11;100055.72;;;21.68;34.60
51249;BME280;39642;47.556;18.728;2023-01-26T07:59:37;100048.44;;;21.71;35.37
51249;BME280;39642;47.556;18.728;2023-01-26T08:02:03;100059.91;;;21.72;35.13
51249;BME280;39642;47.556;18.728;2023-01-26T08:04:28;100054.59;;;21.72;34.64
51249;BME280;39642;47.556;18.728;2023-01-26T08:06:55;100045.69;;;21.73;34.36
51249;BME280;39642;47.556;18.728;2023-01-26T08:09:22;100052.62;;;21.75;33.63
51249;BME280;39642;47.556;18.728;2023-01-26T08:11:48;100049.97;;;21.75;33.75
51249;BME280;39642;47.556;18.728;2023-01-26T08:14:14;100050.81;;;21.76;33.69
51249;BME280;39642;47.556;18.728;2023-01-26T08:16:49;100048.09;;;21.77;33.86
51249;BME280;39642;47.556;18.728;2023-01-26T08:19:15;100047.22;;;21.77;33.74
51249;BME280;39642;47.556;18.728;2023-01-26T08:21:40;100044.50;;;21.78;33.71
51249;BME280;39642;47.556;18.728;2023-01-26T08:24:06;100048.09;;;21.77;33.92
51249;BME280;39642;47.556;18.728;2023-01-26T08:26:33;100049.78;;;21.78;34.21
51249;BME280;39642;47.556;18.728;2023-01-26T08:28:59;100053.28;;;21.79;35.26
51249;BME280;39642;47.556;18.728;2023-01-26T08:31:25;100056.69;;;21.81;35.79
51249;BME280;39642;47.556;18.728;2023-01-26T08:33:52;100048.81;;;21.79;35.41
51249;BME280;39642;47.556;18.728;2023-01-26T08:36:20;100055.00;;;21.80;35.84
51249;BME280;39642;47.556;18.728;2023-01-26T08:38:46;100049.59;;;21.81;36.18
51249;BME280;39642;47.556;18.728;2023-01-26T08:41:13;100050.56;;;21.80;36.04
51249;BME280;39642;47.556;18.728;2023-01-26T08:43:38;100049.59;;;21.81;35.92
51249;BME280;39642;47.556;18.728;2023-01-26T08:46:05;100055.78;;;21.82;36.51
51249;BME280;39642;47.556;18.728;2023-01-26T08:48:31;100047.81;;;21.82;37.23
51249;BME280;39642;47.556;18.728;2023-01-26T08:50:59;100054.06;;;21.81;37.09
51249;BME280;39642;47.556;18.728;2023-01-26T08:53:29;100055.84;;;21.80;37.59
51249;BME280;39642;47.556;18.728;2023-01-26T08:55:55;100055.00;;;21.80;38.47
51249;BME280;39642;47.556;18.728;2023-01-26T08:58:21;100047.81;;;21.82;37.95
51249;BME280;39642;47.556;18.728;2023-01-26T09:00:46;100058.50;;;21.80;37.80
51249;BME280;39642;47.556;18.728;2023-01-26T09:03:12;100054.06;;;21.81;37.17
51249;BME280;39642;47.556;18.728;2023-01-26T09:05:39;100048.19;;;21.76;37.40
51249;BME280;39642;47.556;18.728;2023-01-26T09:08:07;100057.16;;;21.73;36.90
51249;BME280;39642;47.556;18.728;2023-01-26T09:10:36;100052.03;;;21.70;36.42
51249;BME280;39642;47.556;18.728;2023-01-26T09:13:02;100054.78;;;21.69;36.34
51249;BME280;39642;47.556;18.728;2023-01-26T09:15:28;100055.62;;;21.69;36.35
51249;BME280;39642;47.556;18.728;2023-01-26T09:17:54;100065.41;;;21.69;36.42
51249;BME280;39642;47.556;18.728;2023-01-26T09:20:20;100055.72;;;21.68;36.22
51249;BME280;39642;47.556;18.728;2023-01-26T09:22:46;100051.38;;;21.67;36.14
51249;BME280;39642;47.556;18.728;2023-01-26T09:25:12;100045.22;;;21.66;36.26
51249;BME280;39642;47.556;18.728;2023-01-26T09:27:39;100048.81;;;21.65;36.45
51249;BME280;39642;47.556;18.728;2023-01-26T09:30:07;100051.38;;;21.67;36.14
51249;BME280;39642;47.556;18.728;2023-01-26T09:32:33;100045.22;;;21.66;35.87
51249;BME280;39642;47.556;18.728;2023-01-26T09:34:59;100051.38;;;21.67;35.73
51249;BME280;39642;47.556;18.728;2023-01-26T09:37:25;100045.13;;;21.68;35.84
51249;BME280;39642;47.556;18.728;2023-01-26T09:39:51;100050.25;;;21.71;35.83
51249;BME280;39642;47.556;18.728;2023-01-26T09:48:31;100048.81;;;21.79;34.83
51249;BME280;39642;47.556;18.728;2023-01-26T09:51:12;100041.91;;;21.77;34.58
51249;BME280;39642;47.556;18.728;2023-01-26T09:53:48;100035.97;;;21.73;34.23
51249;BME280;39642;47.556;18.728;2023-01-26T09:56:20;100032.63;;;21.70;33.64
51249;BME280;39642;47.556;18.728;2023-01-26T09:59:05;100026.00;;;21.62;32.96
51249;BME280;39642;47.556;18.728;2023-01-26T10:04:42;100020.41;;;21.53;33.01
51249;BME280;39642;47.556;18.728;2023-01-26T10:07:11;100013.56;;;21.49;33.11
51249;BME280;39642;47.556;18.728;2023-01-26T10:09:39;100009.87;;;21.51;32.91
51249;BME280;39642;47.556;18.728;2023-01-26T10:12:14;100006.19;;;21.54;32.76
51249;BME280;39642;47.556;18.728;2023-01-26T10:14:44;100006.97;;;21.56;32.87
51249;BME280;39642;47.556;18.728;2023-01-26T10:17:50;100003.28;;;21.58;32.90
51249;BME280;39642;47.556;18.728;2023-01-26T10:20:23;99995.31;;;21.58;32.91
51249;BME280;39642;47.556;18.728;2023-01-26T10:23:00;99989.09;;;21.59;32.95
51249;BME280;39642;47.556;18.728;2023-01-26T10:25:36;99984.72;;;21.58;32.86
51249;BME280;39642;47.556;18.728;2023-01-26T10:28:16;99982.00;;;21.60;33.16
51249;BME280;39642;47.556;18.728;2023-01-26T10:30:45;99981.88;;;21.61;33.21
51249;BME280;39642;47.556;18.728;2023-01-26T10:33:18;99977.44;;;21.62;33.23
51249;BME280;39642;47.556;18.728;2023-01-26T10:35:45;99975.66;;;21.62;33.31
51249;BME280;39642;47.556;18.728;2023-01-26T10:38:27;99972.91;;;21.64;33.19
51249;BME280;39642;47.556;18.728;2023-01-26T10:41:01;99972.81;;;21.66;33.32
51249;BME280;39642;47.556;18.728;2023-01-26T10:43:28;99958.78;;;21.63;33.32
51249;BME280;39642;47.556;18.728;2023-01-26T10:45:56;99951.81;;;21.62;33.62
51249;BME280;39642;47.556;18.728;2023-01-26T10:48:23;99950.06;;;21.61;34.30
51249;BME280;39642;47.556;18.728;2023-01-26T10:50:52;99952.66;;;21.63;34.78
51249;BME280;39642;47.556;18.728;2023-01-26T10:53:23;99957.66;;;21.68;34.90
51249;BME280;39642;47.556;18.728;2023-01-26T10:56:01;99956.75;;;21.69;34.07
51249;BME280;39642;47.556;18.728;2023-01-26T11:01:08;99951.25;;;21.57;33.77
51249;BME280;39642;47.556;18.728;2023-01-26T11:03:37;99955.66;;;21.57;33.56
51249;BME280;39642;47.556;18.728;2023-01-26T11:06:06;99941.41;;;21.59;34.28
51249;BME280;39642;47.556;18.728;2023-01-26T11:08:34;99941.19;;;21.62;34.85
51249;BME280;39642;47.556;18.728;2023-01-26T11:11:01;99940.06;;;21.67;34.49
51249;BME280;39642;47.556;18.728;2023-01-26T11:13:29;99936.56;;;21.66;34.11
51249;BME280;39642;47.556;18.728;2023-01-26T11:16:18;99936.47;;;21.68;34.03
51249;BME280;39642;47.556;18.728;2023-01-26T11:18:53;99928.44;;;21.69;34.19
51249;BME280;39642;47.556;18.728;2023-01-26T11:21:32;99928.34;;;21.71;34.39
51249;BME280;39642;47.556;18.728;2023-01-26T11:35:14;99912.25;;;21.74;34.13
51249;BME280;39642;47.556;18.728;2023-01-26T11:50:12;99898.81;;;21.48;35.31
51249;BME280;39642;47.556;18.728;2023-01-26T12:00:55;99884.31;;;21.54;35.02
51249;BME280;39642;47.556;18.728;2023-01-26T12:03:42;99876.44;;;21.52;35.57
51249;BME280;39642;47.556;18.728;2023-01-26T12:06:18;99872.31;;;21.48;36.01
51249;BME280;39642;47.556;18.728;2023-01-26T12:08:53;99862.66;;;21.47;36.12
51249;BME280;39642;47.556;18.728;2023-01-26T12:11:37;99858.09;;;21.49;36.99
51249;BME280;39642;47.556;18.728;2023-01-26T12:14:28;99861.59;;;21.50;36.87
51249;BME280;39642;47.556;18.728;2023-01-26T12:22:14;99852.72;;;21.51;37.58
51249;BME280;39642;47.556;18.728;2023-01-26T12:24:50;99845.72;;;21.50;37.67
51249;BME280;39642;47.556;18.728;2023-01-26T12:27:41;99837.66;;;21.51;37.80
51249;BME280;39642;47.556;18.728;2023-01-26T12:33:09;99845.62;;;21.51;37.23
51249;BME280;39642;47.556;18.728;2023-01-26T12:35:42;99835.09;;;21.50;38.20
51249;BME280;39642;47.556;18.728;2023-01-26T12:41:34;99836.34;;;21.44;38.21
51249;BME280;39642;47.556;18.728;2023-01-26T12:44:29;99840.69;;;21.45;36.92
51249;BME280;39642;47.556;18.728;2023-01-26T12:47:07;99831.97;;;21.43;36.47
51249;BME280;39642;47.556;18.728;2023-01-26T12:49:44;99836.34;;;21.44;36.86
51249;BME280;39642;47.556;18.728;2023-01-26T12:52:19;99829.16;;;21.46;35.86
51249;BME280;39642;47.556;18.728;2023-01-26T12:54:55;99835.94;;;21.50;35.58
51249;BME280;39642;47.556;18.728;2023-01-26T12:57:25;99837.66;;;21.51;35.11
51249;BME280;39642;47.556;18.728;2023-01-26T13:00:03;99840.25;;;21.53;36.38
51249;BME280;39642;47.556;18.728;2023-01-26T13:02:34;99831.25;;;21.55;37.66
51249;BME280;39642;47.556;18.728;2023-01-26T13:05:02;99838.22;;;21.56;37.70
51249;BME280;39642;47.556;18.728;2023-01-26T13:07:35;99825.94;;;21.55;37.35
51249;BME280;39642;47.556;18.728;2023-01-26T13:12:47;99827.06;;;21.51;36.21
51249;BME280;39642;47.556;18.728;2023-01-26T13:15:15;99821.69;;;21.53;35.70
51249;BME280;39642;47.556;18.728;2023-01-26T13:20:48;99824.06;;;21.57;34.64
51249;BME280;39642;47.556;18.728;2023-01-26T13:23:36;99826.59;;;21.59;34.89
51249;BME280;39642;47.556;18.728;2023-01-26T13:26:11;99822.16;;;21.59;35.55
51249;BME280;39642;47.556;18.728;2023-01-26T13:28:39;99827.53;;;21.58;35.51
51249;BME280;39642;47.556;18.728;2023-01-26T13:31:08;99827.47;;;21.59;35.20
51249;BME280;39642;47.556;18.728;2023-01-26T13:33:34;99816.88;;;21.59;35.76
51249;BME280;39642;47.556;18.728;2023-01-26T13:36:11;99815.06;;;21.60;34.74
51249;BME280;39642;47.556;18.728;2023-01-26T13:38:44;99812.28;;;21.61;34.98
51249;BME280;39642;47.556;18.728;2023-01-26T13:41:19;99813.91;;;21.64;35.28
51249;BME280;39642;47.556;18.728;2023-01-26T13:43:50;99821.59;;;21.69;35.18
51249;BME280;39642;47.556;18.728;2023-01-26T13:46:30;99819.56;;;21.72;35.32
51249;BME280;39642;47.556;18.728;2023-01-26T13:48:59;99824.88;;;21.72;35.29
51249;BME280;39642;47.556;18.728;2023-01-26T13:51:28;99812.28;;;21.76;35.37
51249;BME280;39642;47.556;18.728;2023-01-26T13:54:11;99809.72;;;21.74;35.07
51249;BME280;39642;47.556;18.728;2023-01-26T13:57:03;99807.16;;;21.73;35.76
51249;BME280;39642;47.556;18.728;2023-01-26T13:59:31;99809.25;;;21.68;34.74
51249;BME280;39642;47.556;18.728;2023-01-26T14:02:00;99809.38;;;21.66;34.63
51249;BME280;39642;47.556;18.728;2023-01-26T14:04:30;99809.47;;;21.65;35.69
51249;BME280;39642;47.556;18.728;2023-01-26T14:07:12;99807.75;;;21.63;34.32
51249;BME280;39642;47.556;18.728;2023-01-26T14:09:51;99809.56;;;21.63;34.93